createdAt,value
2023-05-10T00:00:11.733Z,10.67
2023-05-10T00:01:11.710Z,10.83
2023-05-10T00:02:11.752Z,11
2023-05-10T00:03:11.803Z,10.83
2023-05-10T00:05:11.774Z,10.67
2023-05-10T00:06:11.717Z,10.56
2023-05-10T00:07:11.742Z,10.67
2023-05-10T00:08:11.719Z,10.56
2023-05-10T00:09:11.742Z,11
2023-05-10T00:10:11.737Z,11
2023-05-10T00:11:11.727Z,10.83
2023-05-10T00:12:11.742Z,11
2023-05-10T00:13:11.745Z,10.83
2023-05-10T00:14:11.732Z,10.56
2023-05-10T00:15:11.731Z,10.67
2023-05-10T00:16:11.746Z,10.83
2023-05-10T00:18:11.750Z,10.56
2023-05-10T00:19:11.739Z,10.83
2023-05-10T00:20:11.750Z,10.83
2023-05-10T00:21:11.785Z,10.67
2023-05-10T00:23:11.744Z,10.83
2023-05-10T00:24:11.744Z,10.83
2023-05-10T00:26:11.734Z,10.39
2023-05-10T00:27:11.753Z,10.83
2023-05-10T00:28:11.762Z,10.83
2023-05-10T00:30:11.760Z,10.67
2023-05-10T00:31:11.743Z,10.56
2023-05-10T00:32:11.777Z,11
2023-05-10T00:33:11.757Z,11
2023-05-10T00:34:11.756Z,10.83
2023-05-10T00:35:11.745Z,10.56
2023-05-10T00:36:11.765Z,10.67
2023-05-10T00:37:11.780Z,10.83
2023-05-10T00:39:11.770Z,10.83
2023-05-10T00:40:11.760Z,11
2023-05-10T00:42:11.772Z,10.83
2023-05-10T00:44:11.788Z,10.67
2023-05-10T00:45:11.770Z,10.67
2023-05-10T00:47:11.773Z,10.83
2023-05-10T00:49:11.769Z,11
2023-05-10T00:50:11.802Z,11
2023-05-10T00:51:11.772Z,11
2023-05-10T00:52:11.766Z,10.83
2023-05-10T00:53:11.823Z,10.83
2023-05-10T00:54:11.778Z,11.44
2023-05-10T00:55:11.775Z,11.11
2023-05-10T00:57:11.777Z,11.44
2023-05-10T00:58:11.778Z,11.28
2023-05-10T00:59:11.787Z,11.44
2023-05-10T01:00:11.780Z,11.28
2023-05-10T01:02:11.800Z,11.44
2023-05-10T01:04:11.788Z,11.28
2023-05-10T01:06:11.797Z,11.44
2023-05-10T01:07:11.787Z,11.44
2023-05-10T01:08:11.798Z,11.44
2023-05-10T01:09:11.820Z,11.28
2023-05-10T01:11:11.798Z,10.39
2023-05-10T01:13:11.814Z,10.39
2023-05-10T01:14:11.801Z,10.56
2023-05-10T01:15:11.803Z,10.56
2023-05-10T01:16:11.889Z,10.56
2023-05-10T01:17:11.843Z,10.56
2023-05-10T01:18:11.807Z,10.83
2023-05-10T01:19:11.817Z,10.56
2023-05-10T01:21:11.815Z,10.56
2023-05-10T01:22:11.795Z,10.83
2023-05-10T01:23:11.808Z,10.67
2023-05-10T01:24:11.817Z,11
2023-05-10T01:25:11.852Z,10.83
2023-05-10T01:26:11.815Z,11
2023-05-10T01:27:11.812Z,10.56
2023-05-10T01:28:11.804Z,10.67
2023-05-10T01:29:11.811Z,10.83
2023-05-10T01:30:15.802Z,10.83
2023-05-10T01:31:11.891Z,11
2023-05-10T01:32:11.838Z,10.67
2023-05-10T01:33:11.821Z,11
2023-05-10T01:34:11.821Z,10.83
2023-05-10T01:36:11.842Z,10.39
2023-05-10T01:37:11.832Z,10.67
2023-05-10T01:39:11.824Z,10.67
2023-05-10T01:40:11.814Z,10.83
2023-05-10T01:41:11.841Z,11
2023-05-10T01:42:11.820Z,10.56
2023-05-10T01:43:11.832Z,10.39
2023-05-10T01:44:11.828Z,10.56
2023-05-10T01:46:12.061Z,10.56
2023-05-10T01:47:11.831Z,10.67
2023-05-10T01:48:11.940Z,10.39
2023-05-10T01:50:11.835Z,10.56
2023-05-10T01:51:11.828Z,10.39
2023-05-10T01:53:11.860Z,10.39
2023-05-10T01:54:11.836Z,10.67
2023-05-10T01:55:11.845Z,10.39
2023-05-10T01:57:11.868Z,10.56
2023-05-10T01:59:11.839Z,11
2023-05-10T02:00:11.832Z,10.67
2023-05-10T02:01:11.860Z,10.67
2023-05-10T02:03:12.088Z,10.56
2023-05-10T02:04:11.902Z,10.56
2023-05-10T02:05:11.847Z,10.56
2023-05-10T02:07:11.844Z,10.67
2023-05-10T02:08:11.841Z,10.67
2023-05-10T02:10:11.857Z,10.67
2023-05-10T02:12:11.845Z,10.67
2023-05-10T02:13:11.923Z,10.67
2023-05-10T02:15:11.855Z,10.83
2023-05-10T02:16:11.859Z,10.67
2023-05-10T02:17:11.868Z,10.67
2023-05-10T02:18:11.853Z,10.56
2023-05-10T02:19:11.853Z,10.83
2023-05-10T02:20:11.848Z,10.83
2023-05-10T02:21:11.850Z,10.67
2023-05-10T02:22:11.857Z,10.67
2023-05-10T02:23:11.845Z,10.67
2023-05-10T02:24:11.857Z,10.56
2023-05-10T02:25:11.854Z,10.39
2023-05-10T02:27:11.878Z,10.56
2023-05-10T02:29:11.883Z,10.56
2023-05-10T02:30:11.850Z,10.39
2023-05-10T02:31:11.878Z,10.56
2023-05-10T02:32:12.018Z,10.39
2023-05-10T02:34:11.877Z,10.56
2023-05-10T02:36:11.857Z,10.39
2023-05-10T02:37:11.884Z,9.94
2023-05-10T02:38:11.865Z,10.11
2023-05-10T02:39:11.856Z,10.11
2023-05-10T02:40:11.888Z,9.94
2023-05-10T02:42:11.888Z,10.11
2023-05-10T02:44:11.860Z,10.11
2023-05-10T02:45:11.902Z,9.94
2023-05-10T02:46:11.900Z,10.11
2023-05-10T02:47:11.862Z,10.22
2023-05-10T02:48:11.880Z,10.11
2023-05-10T02:49:11.865Z,10.11
2023-05-10T02:51:11.877Z,10.22
2023-05-10T02:53:11.868Z,9.94
2023-05-10T02:55:11.891Z,9.94
2023-05-10T02:56:11.866Z,10.11
2023-05-10T02:57:11.865Z,10.11
2023-05-10T02:58:11.893Z,10.22
2023-05-10T03:00:11.891Z,9.78
2023-05-10T03:01:11.918Z,10.22
2023-05-10T03:02:11.856Z,10.56
2023-05-10T03:03:11.894Z,10.39
2023-05-10T03:05:11.878Z,10.22
2023-05-10T03:07:11.890Z,9.67
2023-05-10T03:08:11.874Z,10.11
2023-05-10T03:10:11.880Z,10.11
2023-05-10T03:11:11.860Z,10.11
2023-05-10T03:12:11.882Z,9.94
2023-05-10T03:13:11.932Z,10.22
2023-05-10T03:14:11.884Z,10.11
2023-05-10T03:16:11.904Z,9.94
2023-05-10T03:17:11.892Z,9.78
2023-05-10T03:19:11.879Z,9.78
2023-05-10T03:20:11.882Z,9.5
2023-05-10T03:21:11.880Z,9.67
2023-05-10T03:22:11.907Z,9.67
2023-05-10T03:23:11.874Z,9.67
2023-05-10T03:24:11.888Z,9.67
2023-05-10T03:25:11.902Z,9.67
2023-05-10T03:28:11.896Z,9.94
2023-05-10T03:30:11.896Z,10.11
2023-05-10T03:31:11.905Z,9.94
2023-05-10T03:32:11.893Z,9.78
2023-05-10T03:33:11.993Z,10.11
2023-05-10T03:34:11.891Z,9.78
2023-05-10T03:35:11.903Z,9.67
2023-05-10T03:37:11.902Z,10.11
2023-05-10T03:38:11.898Z,9.94
2023-05-10T03:40:11.911Z,9.94
2023-05-10T03:41:11.911Z,9.94
2023-05-10T03:43:11.903Z,9.78
2023-05-10T03:44:11.923Z,9.67
2023-05-10T03:45:11.908Z,9.67
2023-05-10T03:46:11.984Z,9.67
2023-05-10T03:47:11.901Z,9.67
2023-05-10T03:48:11.962Z,9.67
2023-05-10T03:49:11.945Z,9.78
2023-05-10T03:50:11.906Z,9.67
2023-05-10T03:51:11.916Z,9.67
2023-05-10T03:52:11.906Z,9.5
2023-05-10T03:53:11.917Z,9.67
2023-05-10T03:54:11.919Z,9.22
2023-05-10T03:56:11.937Z,9.5
2023-05-10T03:58:11.940Z,9.39
2023-05-10T03:59:11.932Z,9.67
2023-05-10T04:00:11.925Z,9.67
2023-05-10T04:02:12.003Z,9.22
2023-05-10T04:03:12.029Z,9.22
2023-05-10T04:04:12.034Z,8.94
2023-05-10T04:05:11.949Z,8.78
2023-05-10T04:06:11.955Z,8.94
2023-05-10T04:07:11.926Z,9.22
2023-05-10T04:08:11.975Z,9.06
2023-05-10T04:09:11.928Z,9.22
2023-05-10T04:10:11.953Z,9.22
2023-05-10T04:11:11.947Z,9.06
2023-05-10T04:12:11.937Z,9.22
2023-05-10T04:13:11.970Z,8.78
2023-05-10T04:14:11.928Z,9.06
2023-05-10T04:15:11.924Z,9.39
2023-05-10T04:16:11.953Z,9.22
2023-05-10T04:17:12.013Z,9.22
2023-05-10T04:18:11.990Z,9.06
2023-05-10T04:20:11.946Z,9.06
2023-05-10T04:21:11.964Z,8.61
2023-05-10T04:23:11.958Z,9.06
2023-05-10T04:25:11.948Z,9.22
2023-05-10T04:26:11.955Z,9.06
2023-05-10T04:27:11.948Z,9.22
2023-05-10T04:28:11.955Z,9.22
2023-05-10T04:29:11.970Z,9.22
2023-05-10T04:30:11.973Z,9.06
2023-05-10T04:32:11.987Z,9.22
2023-05-10T04:33:11.980Z,9.06
2023-05-10T04:34:11.963Z,9.22
2023-05-10T04:35:11.982Z,9.06
2023-05-10T04:36:11.966Z,9.06
2023-05-10T04:37:12.156Z,9.22
2023-05-10T04:38:11.955Z,9.22
2023-05-10T04:39:11.963Z,9.22
2023-05-10T04:40:11.965Z,9.39
2023-05-10T04:41:11.973Z,9.22
2023-05-10T04:42:11.964Z,9.5
2023-05-10T04:43:11.967Z,9.06
2023-05-10T04:44:11.985Z,9.06
2023-05-10T04:45:11.968Z,9.06
2023-05-10T04:47:12.751Z,9.39
2023-05-10T04:49:11.981Z,9.39
2023-05-10T04:50:11.998Z,9.39
2023-05-10T04:51:11.981Z,9.5
2023-05-10T04:52:11.996Z,9.06
2023-05-10T04:53:13.156Z,9.39
2023-05-10T04:55:11.997Z,9.22
2023-05-10T04:56:11.978Z,9.5
2023-05-10T04:57:12.015Z,8.94
2023-05-10T04:58:11.995Z,9.39
2023-05-10T04:59:11.985Z,9.67
2023-05-10T05:00:11.995Z,9.67
2023-05-10T05:01:12.041Z,9.5
2023-05-10T05:02:12.002Z,9.5
2023-05-10T05:04:12.005Z,9.39
2023-05-10T05:06:12.007Z,9.39
2023-05-10T05:07:12.007Z,9.5
2023-05-10T05:09:12.044Z,9.67
2023-05-10T05:11:12.000Z,9.22
2023-05-10T05:12:12.005Z,9.39
2023-05-10T05:13:12.050Z,9.39
2023-05-10T05:14:12.008Z,9.22
2023-05-10T05:15:12.083Z,8.94
2023-05-10T05:16:12.153Z,9.5
2023-05-10T05:17:12.027Z,9.39
2023-05-10T05:18:12.020Z,9.67
2023-05-10T05:19:12.027Z,9.67
2023-05-10T05:20:12.035Z,9.5
2023-05-10T05:21:12.021Z,9.67
2023-05-10T05:22:12.043Z,9.78
2023-05-10T05:24:12.022Z,9.67
2023-05-10T05:25:12.064Z,9.5
2023-05-10T05:27:12.029Z,9.67
2023-05-10T05:28:12.045Z,9.67
2023-05-10T05:29:12.024Z,9.94
2023-05-10T05:30:12.016Z,9.78
2023-05-10T05:31:12.051Z,9.67
2023-05-10T05:33:12.115Z,9.67
2023-05-10T05:34:12.045Z,9.67
2023-05-10T05:36:12.033Z,9.78
2023-05-10T05:37:12.040Z,9.67
2023-05-10T05:39:12.051Z,9.67
2023-05-10T05:41:12.125Z,9.67
2023-05-10T05:43:12.039Z,9.67
2023-05-10T05:44:12.048Z,9.67
2023-05-10T05:45:12.047Z,9.22
2023-05-10T05:47:12.101Z,9.67
2023-05-10T05:49:12.048Z,9.67
2023-05-10T05:50:12.132Z,9.94
2023-05-10T05:52:12.043Z,9.78
2023-05-10T05:53:12.054Z,9.78
2023-05-10T05:54:12.076Z,9.94
2023-05-10T05:56:12.054Z,9.67
2023-05-10T05:57:12.079Z,9.78
2023-05-10T05:59:12.065Z,10.11
2023-05-10T06:00:12.069Z,9.94
2023-05-10T06:01:12.099Z,9.94
2023-05-10T06:02:12.144Z,9.94
2023-05-10T06:03:12.103Z,10.11
2023-05-10T06:04:12.089Z,10.11
2023-05-10T06:05:12.070Z,10.11
2023-05-10T06:07:12.063Z,9.78
2023-05-10T06:08:12.070Z,9.94
2023-05-10T06:09:12.073Z,10.17
2023-05-10T06:10:12.061Z,10.11
2023-05-10T06:11:12.095Z,10.11
2023-05-10T06:12:12.068Z,10.11
2023-05-10T06:13:12.128Z,10.22
2023-05-10T06:14:12.069Z,10.22
2023-05-10T06:15:12.081Z,10.39
2023-05-10T06:16:12.081Z,10.22
2023-05-10T06:17:12.086Z,10.39
2023-05-10T06:19:12.089Z,10.39
2023-05-10T06:20:12.067Z,10.11
2023-05-10T06:21:12.080Z,10.39
2023-05-10T06:22:12.082Z,10.22
2023-05-10T06:23:12.093Z,10.22
2023-05-10T06:25:12.086Z,10.39
2023-05-10T06:26:12.085Z,10.22
2023-05-10T06:27:12.129Z,10.39
2023-05-10T06:28:12.110Z,10.39
2023-05-10T06:29:12.116Z,10.39
2023-05-10T06:30:13.514Z,10.56
2023-05-10T06:31:12.094Z,10.39
2023-05-10T06:32:12.086Z,10.22
2023-05-10T06:33:12.139Z,10.56
2023-05-10T06:34:12.084Z,10.67
2023-05-10T06:35:12.101Z,10.67
2023-05-10T06:36:12.106Z,10.83
2023-05-10T06:37:12.112Z,10.39
2023-05-10T06:38:12.089Z,10.83
2023-05-10T06:40:12.100Z,10.39
2023-05-10T06:41:12.091Z,10.56
2023-05-10T06:42:12.102Z,10.39
2023-05-10T06:43:12.081Z,10.67
2023-05-10T06:44:12.112Z,10.83
2023-05-10T06:45:12.129Z,11
2023-05-10T06:47:12.095Z,10.83
2023-05-10T06:48:12.098Z,11
2023-05-10T06:49:12.097Z,11.28
2023-05-10T06:50:12.099Z,11.11
2023-05-10T06:52:12.098Z,11.44
2023-05-10T06:53:12.117Z,11.44
2023-05-10T06:55:12.112Z,11.28
2023-05-10T06:58:12.102Z,11.28
2023-05-10T07:00:12.115Z,11.28
2023-05-10T07:01:12.191Z,11.44
2023-05-10T07:03:12.157Z,11.44
2023-05-10T07:04:12.117Z,11.28
2023-05-10T07:05:12.097Z,11.28
2023-05-10T07:06:18.622Z,11.11
2023-05-10T07:07:12.120Z,11
2023-05-10T07:08:12.122Z,11.11
2023-05-10T07:09:12.109Z,11.44
2023-05-10T07:10:12.115Z,11.11
2023-05-10T07:11:12.134Z,11.44
2023-05-10T07:12:14.221Z,11.28
2023-05-10T07:13:12.200Z,11.44
2023-05-10T07:14:12.119Z,11.44
2023-05-10T07:15:12.120Z,11.61
2023-05-10T07:16:12.161Z,11.61
2023-05-10T07:17:12.180Z,11.72
2023-05-10T07:19:12.115Z,11.72
2023-05-10T07:20:12.127Z,11.72
2023-05-10T07:21:12.156Z,11.61
2023-05-10T07:23:12.131Z,11.44
2023-05-10T07:24:12.126Z,11.44
2023-05-10T07:25:12.164Z,11.61
2023-05-10T07:27:12.135Z,11.83
2023-05-10T07:28:12.122Z,11.61
2023-05-10T07:29:12.132Z,11.44
2023-05-10T07:30:12.116Z,11.44
2023-05-10T07:32:12.153Z,11.44
2023-05-10T07:33:12.272Z,11.28
2023-05-10T07:34:12.123Z,11
2023-05-10T07:35:12.145Z,11.11
2023-05-10T07:36:12.136Z,11.28
2023-05-10T07:38:12.129Z,11.61
2023-05-10T07:39:16.222Z,11.61
2023-05-10T07:40:12.140Z,11.61
2023-05-10T07:41:12.144Z,11.61
2023-05-10T07:42:12.146Z,11.83
2023-05-10T07:43:12.147Z,11.83
2023-05-10T07:44:12.126Z,11.94
2023-05-10T07:45:12.134Z,11.83
2023-05-10T07:47:12.192Z,12.28
2023-05-10T07:48:12.144Z,12.11
2023-05-10T07:49:12.215Z,12.28
2023-05-10T07:51:12.136Z,11.83
2023-05-10T07:52:12.148Z,12.17
2023-05-10T07:53:12.131Z,12.11
2023-05-10T07:54:12.156Z,12.72
2023-05-10T07:56:12.129Z,12.72
2023-05-10T07:57:12.137Z,12.72
2023-05-10T07:58:12.133Z,12.72
2023-05-10T07:59:12.861Z,12.72
2023-05-10T08:00:12.141Z,12.56
2023-05-10T08:01:12.139Z,12.56
2023-05-10T08:03:12.309Z,12.56
2023-05-10T08:04:12.141Z,12.44
2023-05-10T08:05:12.175Z,12.44
2023-05-10T08:06:12.161Z,12.72
2023-05-10T08:07:12.142Z,12.72
2023-05-10T08:08:12.156Z,12.28
2023-05-10T08:09:12.193Z,12.28
2023-05-10T08:10:12.231Z,12.44
2023-05-10T08:11:12.138Z,12.72
2023-05-10T08:12:12.151Z,12.56
2023-05-10T08:14:12.159Z,12.72
2023-05-10T08:15:12.144Z,12.56
2023-05-10T08:17:12.137Z,11.94
2023-05-10T08:18:12.188Z,12.28
2023-05-10T08:20:12.151Z,11.83
2023-05-10T08:21:12.228Z,11.89
2023-05-10T08:23:12.142Z,12.11
2023-05-10T08:24:12.167Z,12.28
2023-05-10T08:25:12.161Z,12.28
2023-05-10T08:27:12.152Z,12.56
2023-05-10T08:28:12.168Z,12.28
2023-05-10T08:30:12.153Z,11.94
2023-05-10T08:32:12.161Z,12.5
2023-05-10T08:34:12.152Z,12.17
2023-05-10T08:35:12.181Z,12.17
2023-05-10T08:37:12.180Z,12.44
2023-05-10T08:39:19.412Z,12.5
2023-05-10T08:40:12.160Z,12.5
2023-05-10T08:41:12.166Z,12
2023-05-10T08:42:12.151Z,12.33
2023-05-10T08:43:12.166Z,12.61
2023-05-10T08:44:12.185Z,12.94
2023-05-10T08:45:12.156Z,12.61
2023-05-10T08:46:12.177Z,12.78
2023-05-10T08:47:12.191Z,12.78
2023-05-10T08:49:12.179Z,12.5
2023-05-10T08:50:12.168Z,12.33
2023-05-10T08:51:12.169Z,12.33
2023-05-10T08:52:12.166Z,12.17
2023-05-10T08:53:12.196Z,12.94
2023-05-10T08:54:12.172Z,12.94
2023-05-10T08:55:12.176Z,12.94
2023-05-10T08:56:12.170Z,12.78
2023-05-10T08:58:12.179Z,12.5
2023-05-10T08:59:12.172Z,12.5
2023-05-10T09:00:12.175Z,12.61
2023-05-10T09:01:12.272Z,12.78
2023-05-10T09:02:12.172Z,12.94
2023-05-10T09:03:12.185Z,12.94
2023-05-10T09:04:12.251Z,12.94
2023-05-10T09:05:12.190Z,13.22
2023-05-10T09:06:12.191Z,13.11
2023-05-10T09:07:12.188Z,12.94
2023-05-10T09:08:12.199Z,12.61
2023-05-10T09:09:12.240Z,12.5
2023-05-10T09:10:12.193Z,12.17
2023-05-10T09:11:12.196Z,12.17
2023-05-10T09:12:12.206Z,12.33
2023-05-10T09:13:12.190Z,12.33
2023-05-10T09:14:12.198Z,12.5
2023-05-10T09:15:12.184Z,12.5
2023-05-10T09:16:20.843Z,12.61
2023-05-10T09:18:12.226Z,12.61
2023-05-10T09:19:12.247Z,12.78
2023-05-10T09:20:12.222Z,13.11
2023-05-10T09:21:12.202Z,12.94
2023-05-10T09:23:12.193Z,13.39
2023-05-10T09:24:12.206Z,13.39
2023-05-10T09:25:12.236Z,13.22
2023-05-10T09:26:12.198Z,12.94
2023-05-10T09:27:12.193Z,12.78
2023-05-10T09:28:12.214Z,12.78
2023-05-10T09:29:12.201Z,12.78
2023-05-10T09:31:12.217Z,12.94
2023-05-10T09:33:12.205Z,13.11
2023-05-10T09:34:12.203Z,13.39
2023-05-10T09:35:12.217Z,12.94
2023-05-10T09:37:12.202Z,13.39
2023-05-10T09:38:12.220Z,13.22
2023-05-10T09:39:12.195Z,13.56
2023-05-10T09:40:12.240Z,13.67
2023-05-10T09:41:12.248Z,13.22
2023-05-10T09:43:12.249Z,13.39
2023-05-10T09:45:12.203Z,13.67
2023-05-10T09:47:12.210Z,13.56
2023-05-10T09:48:12.257Z,13.56
2023-05-10T09:49:12.209Z,13.83
2023-05-10T09:50:12.217Z,13.39
2023-05-10T09:51:12.215Z,13.67
2023-05-10T09:52:12.221Z,13.56
2023-05-10T09:53:12.222Z,13.56
2023-05-10T09:54:12.220Z,13.56
2023-05-10T09:55:12.222Z,13.39
2023-05-10T09:56:12.229Z,13.39
2023-05-10T09:57:12.247Z,13.39
2023-05-10T09:59:12.214Z,13.39
2023-05-10T10:00:12.210Z,14
2023-05-10T10:01:12.286Z,14.11
2023-05-10T10:02:12.223Z,14.11
2023-05-10T10:04:12.237Z,14.11
2023-05-10T10:05:12.285Z,14.28
2023-05-10T10:06:22.845Z,14.28
2023-05-10T10:07:12.232Z,13.83
2023-05-10T10:09:12.229Z,14
2023-05-10T10:10:12.260Z,13.83
2023-05-10T10:12:12.224Z,12.5
2023-05-10T10:13:12.266Z,12
2023-05-10T10:14:12.232Z,11.89
2023-05-10T10:16:12.265Z,11.5
2023-05-10T10:18:12.233Z,11.61
2023-05-10T10:19:12.251Z,11.5
2023-05-10T10:20:12.404Z,11.5
2023-05-10T10:21:12.237Z,11.61
2023-05-10T10:22:12.242Z,11.61
2023-05-10T10:23:12.250Z,11.78
2023-05-10T10:25:12.238Z,11.61
2023-05-10T10:26:12.247Z,11.61
2023-05-10T10:27:12.261Z,12
2023-05-10T10:29:12.301Z,12.5
2023-05-10T10:30:12.251Z,12.5
2023-05-10T10:31:12.310Z,12.5
2023-05-10T10:33:20.471Z,12.94
2023-05-10T10:34:12.272Z,12.94
2023-05-10T10:35:12.252Z,12.94
2023-05-10T10:37:12.287Z,12.94
2023-05-10T10:39:12.271Z,13.39
2023-05-10T10:41:12.286Z,13.56
2023-05-10T10:43:12.270Z,13.56
2023-05-10T10:44:12.252Z,12.94
2023-05-10T10:45:12.280Z,13.67
2023-05-10T10:47:12.377Z,13.83
2023-05-10T10:49:12.261Z,14.11
2023-05-10T10:51:12.941Z,14.11
2023-05-10T10:52:12.280Z,14.28
2023-05-10T10:53:12.298Z,14.28
2023-05-10T10:54:12.295Z,14.44
2023-05-10T10:55:12.275Z,14.61
2023-05-10T10:56:12.279Z,14.28
2023-05-10T10:57:12.291Z,14
2023-05-10T10:58:12.275Z,13.83
2023-05-10T10:59:12.279Z,13.83
2023-05-10T11:00:12.261Z,14.11
2023-05-10T11:01:12.349Z,13.83
2023-05-10T11:03:12.382Z,13.39
2023-05-10T11:04:12.289Z,12.78
2023-05-10T11:05:12.285Z,13.39
2023-05-10T11:07:12.282Z,13.83
2023-05-10T11:08:12.275Z,13.22
2023-05-10T11:09:12.281Z,13.56
2023-05-10T11:10:12.315Z,13.11
2023-05-10T11:12:12.279Z,13.67
2023-05-10T11:14:12.286Z,13.56
2023-05-10T11:15:12.295Z,14
2023-05-10T11:16:12.338Z,13.83
2023-05-10T11:17:12.314Z,13.83
2023-05-10T11:19:12.333Z,12.78
2023-05-10T11:21:12.288Z,12.94
2023-05-10T11:23:12.301Z,12.94
2023-05-10T11:25:12.299Z,12.78
2023-05-10T11:27:12.288Z,12.78
2023-05-10T11:28:12.284Z,12.78
2023-05-10T11:29:12.294Z,13.11
2023-05-10T11:30:12.311Z,13.22
2023-05-10T11:32:12.299Z,13.39
2023-05-10T11:33:12.374Z,13.39
2023-05-10T11:34:12.293Z,13.56
2023-05-10T11:35:12.294Z,13.39
2023-05-10T11:36:12.306Z,13.39
2023-05-10T11:37:12.305Z,13.56
2023-05-10T11:38:12.300Z,13.56
2023-05-10T11:39:12.311Z,13.22
2023-05-10T11:40:12.320Z,13.22
2023-05-10T11:41:12.326Z,13.39
2023-05-10T11:43:12.301Z,13.39
2023-05-10T11:44:12.310Z,13.39
2023-05-10T11:45:12.322Z,14
2023-05-10T11:46:12.336Z,14.61
2023-05-10T11:47:12.308Z,14.61
2023-05-10T11:49:12.382Z,14.78
2023-05-10T11:50:12.316Z,14.89
2023-05-10T11:51:12.324Z,14.44
2023-05-10T11:52:12.334Z,14.28
2023-05-10T11:53:12.337Z,13.83
2023-05-10T11:55:12.324Z,14
2023-05-10T11:56:12.335Z,14.11
2023-05-10T11:58:12.325Z,14.78
2023-05-10T11:59:12.333Z,15.17
2023-05-10T12:00:12.343Z,14.78
2023-05-10T12:02:12.324Z,15.61
2023-05-10T12:04:12.508Z,15.61
2023-05-10T12:05:12.346Z,16.06
2023-05-10T12:06:12.316Z,16.06
2023-05-10T12:07:12.336Z,16.39
2023-05-10T12:08:12.350Z,16.56
2023-05-10T12:10:12.333Z,15.28
2023-05-10T12:11:12.334Z,15.17
2023-05-10T12:12:12.341Z,15.61
2023-05-10T12:13:12.328Z,15.78
2023-05-10T12:14:12.320Z,15.61
2023-05-10T12:15:12.331Z,15.28
2023-05-10T12:16:12.398Z,15.28
2023-05-10T12:18:12.413Z,15.17
2023-05-10T12:19:12.533Z,15.28
2023-05-10T12:21:12.384Z,14.78
2023-05-10T12:22:12.328Z,14.28
2023-05-10T12:23:12.353Z,14.28
2023-05-10T12:24:12.347Z,14.44
2023-05-10T12:26:12.346Z,15.17
2023-05-10T12:27:12.337Z,15.06
2023-05-10T12:29:12.351Z,14.78
2023-05-10T12:30:12.401Z,14.28
2023-05-10T12:31:12.348Z,14
2023-05-10T12:32:12.498Z,13.83
2023-05-10T12:33:12.381Z,14.11
2023-05-10T12:34:12.342Z,14.28
2023-05-10T12:35:12.347Z,14.61
2023-05-10T12:36:12.350Z,14.44
2023-05-10T12:37:12.387Z,14.61
2023-05-10T12:39:12.364Z,14.61
2023-05-10T12:41:12.438Z,14.89
2023-05-10T12:43:12.360Z,14.89
2023-05-10T12:45:12.370Z,14.61
2023-05-10T12:46:12.373Z,15.06
2023-05-10T12:47:12.364Z,15.17
2023-05-10T12:48:12.357Z,15.06
2023-05-10T12:49:12.392Z,15.06
2023-05-10T12:51:12.353Z,15.06
2023-05-10T12:52:12.372Z,15.17
2023-05-10T12:53:12.395Z,15.06
2023-05-10T12:55:12.374Z,14.89
2023-05-10T12:56:12.362Z,14.78
2023-05-10T12:57:12.354Z,14.78
2023-05-10T12:58:13.992Z,14.78
2023-05-10T12:59:12.346Z,14.44
2023-05-10T13:00:12.364Z,14.11
2023-05-10T13:01:12.398Z,14.61
2023-05-10T13:02:12.365Z,14.61
2023-05-10T13:03:12.397Z,14.28
2023-05-10T13:04:12.396Z,14.28
2023-05-10T13:05:12.485Z,14.11
2023-05-10T13:07:12.375Z,14.11
2023-05-10T13:08:12.379Z,13.83
2023-05-10T13:09:12.427Z,13.67
2023-05-10T13:11:12.372Z,14
2023-05-10T13:12:12.373Z,13.83
2023-05-10T13:13:12.385Z,14.11
2023-05-10T13:15:12.379Z,13.67
2023-05-10T13:16:12.399Z,13.67
2023-05-10T13:18:12.455Z,13.83
2023-05-10T13:19:12.475Z,13.56
2023-05-10T13:20:12.380Z,13.67
2023-05-10T13:21:12.376Z,13.39
2023-05-10T13:22:12.399Z,13.22
2023-05-10T13:24:12.387Z,13.39
2023-05-10T13:25:12.433Z,13.39
2023-05-10T13:26:12.387Z,13.39
2023-05-10T13:27:12.409Z,13.39
2023-05-10T13:28:12.382Z,13.22
2023-05-10T13:29:12.388Z,13.22
2023-05-10T13:30:12.434Z,13.11
2023-05-10T13:31:12.411Z,13.11
2023-05-10T13:33:12.385Z,12.94
2023-05-10T13:34:12.394Z,12.78
2023-05-10T13:36:12.408Z,12.61
2023-05-10T13:37:12.395Z,12.94
2023-05-10T13:39:12.393Z,12.78
2023-05-10T13:40:12.467Z,12.61
2023-05-10T13:41:12.471Z,12.61
2023-05-10T13:42:12.391Z,12.61
2023-05-10T13:43:12.410Z,12.61
2023-05-10T13:45:12.411Z,11.89
2023-05-10T13:46:12.461Z,11.89
2023-05-10T13:47:12.397Z,11.61
2023-05-10T13:48:12.426Z,11.61
2023-05-10T13:49:12.396Z,11.06
2023-05-10T13:50:12.450Z,10.72
2023-05-10T13:52:12.406Z,10.72
2023-05-10T13:53:12.422Z,10.61
2023-05-10T13:54:13.614Z,10.89
2023-05-10T13:55:12.420Z,10.72
2023-05-10T13:57:12.442Z,10.72
2023-05-10T13:59:12.427Z,11.06
2023-05-10T14:00:12.474Z,10.89
2023-05-10T14:01:12.494Z,11.33
2023-05-10T14:02:12.464Z,11.06
2023-05-10T14:03:12.759Z,11.17
2023-05-10T14:04:12.433Z,11.06
2023-05-10T14:05:12.888Z,10.89
2023-05-10T14:06:12.433Z,11.06
2023-05-10T14:08:12.429Z,11.06
2023-05-10T14:09:12.422Z,11.06
2023-05-10T14:11:12.434Z,11.06
2023-05-10T14:12:12.448Z,10.89
2023-05-10T14:13:12.458Z,11.17
2023-05-10T14:15:12.431Z,11.17
2023-05-10T14:16:12.454Z,11.06
2023-05-10T14:17:12.630Z,11.17
2023-05-10T14:18:12.458Z,10.72
2023-05-10T14:20:12.429Z,10.89
2023-05-10T14:21:12.429Z,10.72
2023-05-10T14:22:12.447Z,10.89
2023-05-10T14:23:12.465Z,10.72
2023-05-10T14:24:12.442Z,10.72
2023-05-10T14:26:12.443Z,10.72
2023-05-10T14:27:12.466Z,10.61
2023-05-10T14:28:12.456Z,10.61
2023-05-10T14:29:12.834Z,10.72
2023-05-10T14:30:12.434Z,10.61
2023-05-10T14:31:12.435Z,10.72
2023-05-10T14:32:12.575Z,10.72
2023-05-10T14:33:12.543Z,10.72
2023-05-10T14:34:12.495Z,10.61
2023-05-10T14:36:12.427Z,10.33
2023-05-10T14:37:12.434Z,10.61
2023-05-10T14:38:12.450Z,10.72
2023-05-10T14:39:12.461Z,10.33
2023-05-10T14:40:12.489Z,10.33
2023-05-10T14:42:12.446Z,10.33
2023-05-10T14:43:12.440Z,10.33
2023-05-10T14:44:12.444Z,10.17
2023-05-10T14:45:12.472Z,10.17
2023-05-10T14:46:12.458Z,10.44
2023-05-10T14:47:12.504Z,10.33
2023-05-10T14:48:12.448Z,10.44
2023-05-10T14:49:12.457Z,10.61
2023-05-10T14:50:18.894Z,10.44
2023-05-10T14:51:12.459Z,10.72
2023-05-10T14:53:12.470Z,10.72
2023-05-10T14:54:12.458Z,10.72
2023-05-10T14:55:12.446Z,10.72
2023-05-10T14:56:12.475Z,11.17
2023-05-10T14:57:12.455Z,11.06
2023-05-10T14:58:12.464Z,11.17
2023-05-10T14:59:12.493Z,11.17
2023-05-10T15:00:12.454Z,10.89
2023-05-10T15:01:12.576Z,11.06
2023-05-10T15:03:12.487Z,10.61
2023-05-10T15:06:12.471Z,11.06
2023-05-10T15:08:12.467Z,10.89
2023-05-10T15:09:12.481Z,10.89
2023-05-10T15:10:12.457Z,11.17
2023-05-10T15:11:12.484Z,11.17
2023-05-10T15:12:12.460Z,11.17
2023-05-10T15:13:12.471Z,11.06
2023-05-10T15:14:12.473Z,10.72
2023-05-10T15:15:12.467Z,11.17
2023-05-10T15:16:12.559Z,10.89
2023-05-10T15:17:12.497Z,10.89
2023-05-10T15:19:12.483Z,10.72
2023-05-10T15:20:12.470Z,10.61
2023-05-10T15:21:12.488Z,10.72
2023-05-10T15:22:12.487Z,10.72
2023-05-10T15:23:12.499Z,10.72
2023-05-10T15:24:12.493Z,10.61
2023-05-10T15:25:12.483Z,10.72
2023-05-10T15:27:12.468Z,10.72
2023-05-10T15:28:12.487Z,10.89
2023-05-10T15:29:12.505Z,11.06
2023-05-10T15:30:12.493Z,10.72
2023-05-10T15:31:12.500Z,10.72
2023-05-10T15:32:12.492Z,10.89
2023-05-10T15:33:12.541Z,10.72
2023-05-10T15:35:12.506Z,10.89
2023-05-10T15:36:12.486Z,11.06
2023-05-10T15:37:12.492Z,10.89
2023-05-10T15:38:12.533Z,11.17
2023-05-10T15:39:12.478Z,11.17
2023-05-10T15:40:12.507Z,11.06
2023-05-10T15:41:12.482Z,11.06
2023-05-10T15:42:12.517Z,10.89
2023-05-10T15:44:12.499Z,10.72
2023-05-10T15:45:12.504Z,10.72
2023-05-10T15:47:12.519Z,10.72
2023-05-10T15:49:12.528Z,10.72
2023-05-10T15:50:12.532Z,10.61
2023-05-10T15:52:12.498Z,10.61
2023-05-10T15:53:12.518Z,10.72
2023-05-10T15:54:12.501Z,10.44
2023-05-10T15:56:12.502Z,10.33
2023-05-10T15:57:12.538Z,10.33
2023-05-10T15:58:12.498Z,10.44
2023-05-10T15:59:12.531Z,10.44
2023-05-10T16:00:12.603Z,10.33
2023-05-10T16:01:12.605Z,10.33
2023-05-10T16:02:12.571Z,10.33
2023-05-10T16:03:12.572Z,10.44
2023-05-10T16:04:12.526Z,10.33
2023-05-10T16:05:12.548Z,10.17
2023-05-10T16:06:12.544Z,10.33
2023-05-10T16:07:12.505Z,10.33
2023-05-10T16:08:12.511Z,10.44
2023-05-10T16:09:12.547Z,10.33
2023-05-10T16:11:12.554Z,10.33
2023-05-10T16:12:12.524Z,9.89
2023-05-10T16:13:12.526Z,10.17